createdAt,value
2019-05-29T00:01:18.514Z,1.97
2019-05-29T00:03:43.539Z,1.77
2019-05-29T00:06:12.546Z,1.97
2019-05-29T00:08:40.959Z,1.70
2019-05-29T00:11:10.151Z,1.83
2019-05-29T00:13:38.795Z,1.80
2019-05-29T00:16:08.199Z,1.80
2019-05-29T00:18:36.876Z,1.80
2019-05-29T00:21:06.311Z,1.90
2019-05-29T00:23:34.871Z,1.80
2019-05-29T00:26:03.327Z,1.70
2019-05-29T00:28:31.830Z,2.20
2019-05-29T00:31:00.248Z,1.87
2019-05-29T00:33:28.659Z,1.57
2019-05-29T00:35:57.399Z,2.30
2019-05-29T00:38:25.887Z,2.10
2019-05-29T00:40:54.363Z,2.20
2019-05-29T00:43:22.844Z,2.13
2019-05-29T00:45:51.339Z,2.13
2019-05-29T00:48:19.896Z,2.20
2019-05-29T00:50:48.407Z,2.40
2019-05-29T00:53:18.343Z,2.10
2019-05-29T00:55:46.917Z,2.33
2019-05-29T00:58:17.091Z,2.00
2019-05-29T01:00:46.272Z,2.23
2019-05-29T01:03:15.861Z,2.07
2019-05-29T01:05:44.983Z,2.30
2019-05-29T01:08:14.514Z,2.37
2019-05-29T01:10:43.704Z,2.23
2019-05-29T01:13:13.164Z,2.60
2019-05-29T01:15:42.355Z,2.00
2019-05-29T01:18:11.723Z,2.50
2019-05-29T01:20:40.801Z,3.07
2019-05-29T01:23:09.816Z,2.40
2019-05-29T01:25:38.777Z,2.10
2019-05-29T01:28:08.096Z,2.40
2019-05-29T01:30:37.158Z,2.23
2019-05-29T01:33:06.180Z,2.70
2019-05-29T01:35:35.132Z,2.60
2019-05-29T01:38:04.088Z,2.57
2019-05-29T01:40:33.024Z,2.63
2019-05-29T01:43:01.913Z,2.60
2019-05-29T01:45:30.788Z,2.50
2019-05-29T01:47:59.744Z,2.40
2019-05-29T01:50:28.752Z,2.60
2019-05-29T01:52:57.608Z,2.50
2019-05-29T01:55:27.906Z,2.70
2019-05-29T01:57:57.329Z,2.70
2019-05-29T02:00:25.926Z,2.73
2019-05-29T02:02:54.334Z,2.63
2019-05-29T02:05:24.011Z,2.90
2019-05-29T02:07:52.617Z,2.60
2019-05-29T02:10:22.145Z,2.47
2019-05-29T02:12:50.681Z,2.37
2019-05-29T02:15:25.937Z,2.90
2019-05-29T02:17:49.443Z,2.70
2019-05-29T02:20:18.990Z,3.00
2019-05-29T02:22:48.317Z,2.90
2019-05-29T02:25:19.644Z,3.10
2019-05-29T02:27:48.929Z,2.90
2019-05-29T02:30:18.772Z,2.83
2019-05-29T02:32:48.050Z,2.63
2019-05-29T02:35:17.982Z,2.60
2019-05-29T02:37:46.543Z,3.30
2019-05-29T02:40:15.118Z,3.30
2019-05-29T02:42:43.814Z,3.50
2019-05-29T02:45:12.219Z,3.30
2019-05-29T02:47:40.658Z,3.57
2019-05-29T02:50:09.319Z,3.00
2019-05-29T02:52:37.786Z,3.03
2019-05-29T02:55:06.654Z,3.10
2019-05-29T02:57:35.139Z,3.27
2019-05-29T03:00:03.888Z,3.10
2019-05-29T03:02:32.382Z,3.40
2019-05-29T03:05:00.818Z,3.43
2019-05-29T03:07:30.720Z,3.60
2019-05-29T03:09:59.733Z,3.50
2019-05-29T03:12:29.434Z,3.97
2019-05-29T03:14:58.536Z,3.70
2019-05-29T03:17:27.926Z,3.70
2019-05-29T03:19:56.845Z,3.60
2019-05-29T03:22:26.261Z,3.83
2019-05-29T03:24:55.010Z,3.70
2019-05-29T03:27:23.444Z,3.50
2019-05-29T03:29:51.915Z,4.07
2019-05-29T03:32:20.403Z,4.23
2019-05-29T03:34:48.969Z,4.00
2019-05-29T03:37:17.799Z,4.20
2019-05-29T03:39:46.270Z,4.50
2019-05-29T03:42:14.743Z,4.07
2019-05-29T03:44:43.279Z,4.50
2019-05-29T03:47:12.092Z,4.20
2019-05-29T03:49:40.795Z,4.27
2019-05-29T03:52:09.276Z,3.93
2019-05-29T03:54:38.716Z,4.50
2019-05-29T03:57:07.432Z,4.60
2019-05-29T03:59:37.374Z,4.63
2019-05-29T04:02:06.389Z,4.40
2019-05-29T04:04:36.210Z,4.50
2019-05-29T04:07:05.009Z,4.40
2019-05-29T04:09:33.478Z,4.70
2019-05-29T04:12:01.993Z,6.83
2019-05-29T04:14:33.489Z,4.47
2019-05-29T04:17:02.092Z,4.40
2019-05-29T04:19:32.609Z,4.63
2019-05-29T04:22:06.974Z,4.97
2019-05-29T04:24:38.227Z,4.80
2019-05-29T04:27:08.351Z,4.77
2019-05-29T04:29:38.417Z,5.00
2019-05-29T04:32:07.024Z,4.60
2019-05-29T04:34:36.295Z,5.17
2019-05-29T04:37:07.398Z,5.40
2019-05-29T04:39:36.973Z,5.40
2019-05-29T04:42:05.561Z,5.87
2019-05-29T04:44:36.310Z,6.47
2019-05-29T04:47:11.008Z,5.87
2019-05-29T04:49:36.169Z,5.50
2019-05-29T04:52:04.689Z,6.03
2019-05-29T04:54:33.442Z,6.00
2019-05-29T04:57:02.033Z,5.90
2019-05-29T04:59:30.881Z,5.33
2019-05-29T05:01:59.736Z,5.80
2019-05-29T05:04:29.123Z,5.60
2019-05-29T05:06:57.581Z,5.40
2019-05-29T05:09:26.124Z,5.20
2019-05-29T05:11:54.647Z,5.23
2019-05-29T05:14:23.101Z,5.50
2019-05-29T05:16:51.713Z,5.60
2019-05-29T05:19:20.237Z,5.00
2019-05-29T05:21:48.662Z,5.07
2019-05-29T05:24:17.541Z,5.63
2019-05-29T05:26:45.965Z,4.70
2019-05-29T05:29:14.457Z,5.00
2019-05-29T05:31:42.869Z,4.57
2019-05-29T05:34:11.385Z,4.50
2019-05-29T05:36:40.894Z,3.50
2019-05-29T05:39:09.645Z,3.70
2019-05-29T05:41:38.993Z,3.97
2019-05-29T05:44:07.535Z,3.97
2019-05-29T05:46:37.075Z,3.23
2019-05-29T05:49:06.569Z,3.03
2019-05-29T05:51:38.344Z,3.20
2019-05-29T05:54:05.262Z,3.30
2019-05-29T05:56:33.757Z,2.83
2019-05-29T05:59:02.557Z,2.87
2019-05-29T06:01:31.765Z,2.80
2019-05-29T06:04:00.297Z,2.70
2019-05-29T06:06:28.726Z,2.60
2019-05-29T06:08:57.134Z,2.80
2019-05-29T06:11:25.627Z,2.93
2019-05-29T06:13:54.207Z,2.80
2019-05-29T06:16:22.706Z,2.70
2019-05-29T06:18:51.602Z,3.20
2019-05-29T06:21:20.091Z,3.40
2019-05-29T06:23:48.886Z,3.10
2019-05-29T06:26:17.311Z,3.00
2019-05-29T06:28:45.722Z,3.07
2019-05-29T06:31:14.214Z,2.90
2019-05-29T06:33:43.925Z,2.63
2019-05-29T06:36:12.995Z,2.60
2019-05-29T06:38:42.218Z,2.70
2019-05-29T06:41:10.810Z,2.40
2019-05-29T06:43:39.957Z,2.70
2019-05-29T06:46:08.927Z,3.50
2019-05-29T06:48:46.374Z,2.20
2019-05-29T06:51:08.664Z,2.03
2019-05-29T06:53:37.853Z,2.70
2019-05-29T06:56:07.044Z,2.80
2019-05-29T06:58:36.012Z,2.10
2019-05-29T07:01:05.049Z,2.00
2019-05-29T07:03:35.484Z,2.50
2019-05-29T07:06:04.855Z,2.43
2019-05-29T07:08:39.957Z,1.93
2019-05-29T07:11:04.915Z,2.30
2019-05-29T07:13:35.171Z,2.50
2019-05-29T07:16:04.751Z,1.97
2019-05-29T07:18:33.804Z,2.00
2019-05-29T07:21:02.771Z,1.87
2019-05-29T07:23:31.783Z,1.40
2019-05-29T07:26:00.742Z,2.03
2019-05-29T07:28:29.724Z,1.63
2019-05-29T07:31:02.610Z,1.80
2019-05-29T07:33:29.519Z,1.97
2019-05-29T07:35:58.663Z,2.37
2019-05-29T07:38:28.056Z,2.20
2019-05-29T07:40:57.019Z,1.87
2019-05-29T07:43:26.059Z,1.90
2019-05-29T07:45:55.103Z,1.90
2019-05-29T07:48:24.235Z,1.90
2019-05-29T07:51:06.384Z,2.23
2019-05-29T07:53:23.527Z,1.97
2019-05-29T07:55:52.439Z,2.17
2019-05-29T07:58:21.485Z,2.03
2019-05-29T08:01:10.010Z,2.03
2019-05-29T08:03:20.844Z,2.40
2019-05-29T08:05:52.654Z,2.27
2019-05-29T08:08:20.677Z,2.33
2019-05-29T08:10:49.809Z,2.20
2019-05-29T08:13:18.971Z,2.27
2019-05-29T08:16:00.948Z,1.87
2019-05-29T08:18:18.688Z,1.80
2019-05-29T08:20:48.164Z,1.90
2019-05-29T08:23:17.279Z,2.43
2019-05-29T08:25:47.500Z,2.40
2019-05-29T08:28:16.893Z,1.97
2019-05-29T08:30:51.657Z,2.30
2019-05-29T08:33:16.517Z,2.33
2019-05-29T08:35:47.078Z,2.50
2019-05-29T08:38:16.245Z,2.10
2019-05-29T08:40:45.608Z,2.30
2019-05-29T08:43:14.552Z,2.40
2019-05-29T08:45:43.580Z,2.30
2019-05-29T08:48:12.557Z,2.10
2019-05-29T08:50:41.624Z,1.70
2019-05-29T08:53:10.621Z,2.13
2019-05-29T08:55:40.112Z,1.90
2019-05-29T08:58:09.453Z,1.70
2019-05-29T09:00:38.549Z,1.87
2019-05-29T09:03:08.046Z,1.83
2019-05-29T09:05:37.113Z,1.80
2019-05-29T09:08:06.099Z,2.00
2019-05-29T09:10:35.326Z,1.77
2019-05-29T09:13:05.351Z,2.07
2019-05-29T09:15:34.631Z,2.60
2019-05-29T09:18:03.705Z,2.17
2019-05-29T09:20:57.804Z,2.13
2019-05-29T09:23:03.705Z,2.10
2019-05-29T09:25:32.705Z,2.00
2019-05-29T09:28:01.595Z,1.77
2019-05-29T09:30:30.633Z,1.83
2019-05-29T09:32:59.513Z,2.30
2019-05-29T09:35:28.558Z,2.00
2019-05-29T09:37:57.902Z,2.30
2019-05-29T09:40:26.900Z,2.10
2019-05-29T09:42:55.795Z,2.00
2019-05-29T09:45:25.554Z,1.90
2019-05-29T09:47:54.694Z,1.50
2019-05-29T09:50:26.006Z,1.80
2019-05-29T09:52:56.749Z,1.40
2019-05-29T09:55:26.278Z,1.40
2019-05-29T09:57:55.711Z,1.90
2019-05-29T10:00:26.318Z,2.03
2019-05-29T10:02:55.607Z,1.90
2019-05-29T10:05:24.814Z,1.93
2019-05-29T10:07:55.052Z,6.03
2019-05-29T10:10:24.899Z,1.80
2019-05-29T10:12:55.345Z,1.80
2019-05-29T10:15:24.827Z,1.80
2019-05-29T10:17:55.336Z,2.53
2019-05-29T10:20:25.188Z,1.70
2019-05-29T10:22:55.493Z,1.40
2019-05-29T10:25:24.692Z,1.77
2019-05-29T10:27:53.779Z,1.50
2019-05-29T10:30:24.955Z,2.00
2019-05-29T10:32:53.949Z,1.90
2019-05-29T10:35:22.940Z,1.67
2019-05-29T10:37:53.637Z,1.63
2019-05-29T10:40:22.739Z,1.43
2019-05-29T10:42:51.769Z,1.90
2019-05-29T10:45:21.252Z,1.67
2019-05-29T10:47:52.194Z,1.60
2019-05-29T10:50:21.627Z,1.63
2019-05-29T10:52:50.606Z,1.70
2019-05-29T10:55:22.783Z,1.60
2019-05-29T10:57:53.099Z,1.80
2019-05-29T11:00:22.543Z,1.80
2019-05-29T11:02:54.721Z,1.67
2019-05-29T11:05:22.423Z,1.60
2019-05-29T11:07:51.925Z,1.47
2019-05-29T11:10:21.232Z,1.40
2019-05-29T11:12:50.761Z,1.10
2019-05-29T11:15:22.071Z,1.40
2019-05-29T11:17:51.505Z,1.30
2019-05-29T11:20:21.510Z,1.30
2019-05-29T11:22:51.654Z,1.20
2019-05-29T11:25:24.879Z,1.20
2019-05-29T11:27:53.061Z,0.93
2019-05-29T11:30:22.800Z,0.60
2019-05-29T11:32:54.651Z,0.60
2019-05-29T11:35:22.632Z,0.50
2019-05-29T11:37:52.495Z,0.80
2019-05-29T11:40:21.753Z,0.83
2019-05-29T11:42:51.141Z,1.03
2019-05-29T11:45:20.600Z,1.20
2019-05-29T11:47:51.360Z,1.20
2019-05-29T11:50:21.474Z,1.00
2019-05-29T11:52:50.451Z,1.20
2019-05-29T11:55:19.810Z,1.10
2019-05-29T11:57:48.762Z,1.40
2019-05-29T12:00:20.585Z,1.10
2019-05-29T12:02:49.101Z,1.33
2019-05-29T12:05:18.713Z,0.60
2019-05-29T12:07:47.604Z,0.90
2019-05-29T12:10:16.917Z,0.93
2019-05-29T12:12:45.914Z,0.97
2019-05-29T12:15:18.695Z,1.10
2019-05-29T12:17:47.861Z,1.40
2019-05-29T12:20:27.645Z,1.13
2019-05-29T12:23:10.917Z,1.17
2019-05-29T12:25:18.784Z,1.20
2019-05-29T12:27:47.890Z,1.17
2019-05-29T12:30:18.579Z,1.20
2019-05-29T12:32:47.642Z,1.47
2019-05-29T12:35:16.915Z,1.30
2019-05-29T12:37:45.935Z,1.50
2019-05-29T12:40:15.663Z,1.33
2019-05-29T12:42:45.270Z,1.37
2019-05-29T12:45:14.707Z,1.67
2019-05-29T12:47:44.086Z,1.50
2019-05-29T12:50:15.041Z,1.60
2019-05-29T12:52:44.010Z,1.53
2019-05-29T12:55:13.243Z,1.80
2019-05-29T12:57:42.222Z,2.23
2019-05-29T13:00:12.315Z,2.10
2019-05-29T13:02:41.343Z,1.57
2019-05-29T13:05:19.351Z,1.70
2019-05-29T13:07:42.148Z,1.87
2019-05-29T13:10:27.234Z,2.00
2019-05-29T13:12:43.490Z,2.00
2019-05-29T13:15:13.714Z,1.97
2019-05-29T13:17:42.744Z,1.80
2019-05-29T13:20:21.194Z,2.10
2019-05-29T13:22:44.439Z,2.20
2019-05-29T13:25:15.014Z,1.90
2019-05-29T13:27:43.974Z,2.20
2019-05-29T13:30:14.842Z,2.20
2019-05-29T13:32:43.977Z,2.20
2019-05-29T13:35:13.669Z,1.67
2019-05-29T13:37:42.649Z,1.50
2019-05-29T13:40:12.747Z,1.90
2019-05-29T13:42:42.020Z,1.40
2019-05-29T13:45:17.863Z,1.23
2019-05-29T13:47:42.147Z,1.50
2019-05-29T13:50:12.631Z,1.00
2019-05-29T13:52:42.086Z,1.43
2019-05-29T13:55:12.986Z,1.23
2019-05-29T13:57:42.272Z,1.40
2019-05-29T14:00:33.728Z,1.63
2019-05-29T14:02:44.208Z,1.40
2019-05-29T14:05:14.416Z,1.60
2019-05-29T14:07:43.661Z,1.30
2019-05-29T14:10:12.953Z,1.50
2019-05-29T14:12:41.980Z,1.30
2019-05-29T14:15:12.392Z,1.50
2019-05-29T14:17:41.676Z,1.30
2019-05-29T14:20:11.420Z,1.40
2019-05-29T14:22:40.789Z,1.30
2019-05-29T14:25:11.645Z,1.40
2019-05-29T14:27:40.793Z,1.03
2019-05-29T14:30:11.104Z,1.33
2019-05-29T14:32:40.468Z,1.70
2019-05-29T14:35:11.161Z,1.57
2019-05-29T14:37:40.985Z,1.70
2019-05-29T14:40:12.219Z,1.80
2019-05-29T14:42:41.393Z,1.70
2019-05-29T14:45:12.366Z,1.50
2019-05-29T14:47:41.709Z,1.63
2019-05-29T14:50:13.125Z,1.43
2019-05-29T14:52:42.059Z,1.50
2019-05-29T14:55:17.401Z,1.40
2019-05-29T14:57:42.487Z,1.40
2019-05-29T15:00:24.349Z,1.50
2019-05-29T15:02:43.913Z,1.60
2019-05-29T15:05:14.684Z,1.60
2019-05-29T15:07:43.808Z,1.37
2019-05-29T15:10:24.850Z,1.27
2019-05-29T15:12:43.960Z,1.70
2019-05-29T15:15:16.247Z,1.63
2019-05-29T15:17:44.469Z,1.70
2019-05-29T15:20:16.829Z,1.70
2019-05-29T15:22:46.150Z,1.60
2019-05-29T15:25:23.590Z,1.50
2019-05-29T15:27:46.393Z,1.80
2019-05-29T15:30:20.769Z,1.80
2019-05-29T15:32:46.717Z,1.57
2019-05-29T15:35:18.417Z,2.63
2019-05-29T15:37:46.597Z,1.70
2019-05-29T15:40:16.934Z,1.97
2019-05-29T15:42:46.090Z,2.20
2019-05-29T15:45:16.065Z,2.17
2019-05-29T15:47:58.841Z,2.10
2019-05-29T15:50:27.978Z,2.17
2019-05-29T15:52:57.037Z,2.30
2019-05-29T15:55:33.664Z,2.53
2019-05-29T15:57:56.773Z,2.20
2019-05-29T16:00:26.132Z,2.20
2019-05-29T16:02:55.234Z,2.00
2019-05-29T16:05:24.318Z,2.10
2019-05-29T16:07:53.287Z,2.17
2019-05-29T16:10:22.527Z,1.87
2019-05-29T16:12:51.587Z,2.23
2019-05-29T16:15:21.112Z,2.37
2019-05-29T16:17:50.064Z,2.23
2019-05-29T16:20:22.696Z,2.40
2019-05-29T16:22:51.940Z,2.13
2019-05-29T16:25:38.908Z,2.00
2019-05-29T16:27:51.631Z,1.90
2019-05-29T16:30:21.915Z,2.10
2019-05-29T16:32:51.131Z,2.20
2019-05-29T16:35:20.880Z,1.97
2019-05-29T16:37:50.101Z,1.67
2019-05-29T16:40:21.870Z,2.37
2019-05-29T16:42:50.903Z,1.70
2019-05-29T16:45:20.620Z,2.00
2019-05-29T16:47:49.986Z,1.60
2019-05-29T16:50:21.087Z,1.30
2019-05-29T16:52:50.349Z,1.60
2019-05-29T16:55:19.488Z,1.60
2019-05-29T16:57:48.608Z,1.67
2019-05-29T17:00:19.830Z,1.43
2019-05-29T17:02:49.553Z,1.80
2019-05-29T17:05:20.536Z,1.50
2019-05-29T17:07:49.637Z,1.13
2019-05-29T17:10:20.457Z,1.50
2019-05-29T17:12:49.408Z,1.40
2019-05-29T17:15:18.993Z,1.47
2019-05-29T17:17:48.180Z,1.37
2019-05-29T17:20:22.642Z,1.63
2019-05-29T17:22:51.885Z,1.53
2019-05-29T17:25:25.511Z,1.73
2019-05-29T17:27:51.866Z,1.20
2019-05-29T17:30:25.098Z,1.40
2019-05-29T17:32:54.065Z,1.40
2019-05-29T17:35:23.193Z,1.40
2019-05-29T17:37:52.349Z,1.50
2019-05-29T17:40:21.550Z,1.13
2019-05-29T17:42:50.744Z,1.30
2019-05-29T17:45:23.912Z,1.50
2019-05-29T17:47:51.253Z,1.37
2019-05-29T17:50:22.914Z,1.40
2019-05-29T17:52:51.502Z,4.10
2019-05-29T17:55:22.110Z,3.03
2019-05-29T17:57:51.771Z,2.80
2019-05-29T18:00:22.497Z,7.77
2019-05-29T18:02:52.809Z,1.30
2019-05-29T18:05:22.675Z,1.20
2019-05-29T18:07:51.829Z,1.17
2019-05-29T18:10:22.786Z,1.33
2019-05-29T18:12:52.249Z,1.40
2019-05-29T18:15:21.773Z,1.23
2019-05-29T18:17:51.127Z,1.13
2019-05-29T18:20:21.589Z,1.30
2019-05-29T18:22:51.148Z,1.00
2019-05-29T18:25:20.239Z,1.20
2019-05-29T18:27:49.263Z,1.23
2019-05-29T18:30:19.947Z,1.13
2019-05-29T18:32:49.492Z,1.37
2019-05-29T18:35:19.034Z,1.57
2019-05-29T18:37:48.225Z,1.30
2019-05-29T18:40:17.682Z,1.37
2019-05-29T18:42:46.650Z,1.17
2019-05-29T18:45:20.862Z,1.43
2019-05-29T18:47:46.931Z,1.30
2019-05-29T18:50:16.299Z,1.93
2019-05-29T18:52:45.263Z,1.60
2019-05-29T18:55:15.615Z,1.40
2019-05-29T18:57:44.832Z,1.60
2019-05-29T19:00:16.288Z,1.70
2019-05-29T19:02:45.343Z,1.40
2019-05-29T19:05:14.863Z,1.93
2019-05-29T19:07:44.023Z,0.90
2019-05-29T19:10:13.577Z,1.40
2019-05-29T19:12:43.073Z,1.23
2019-05-29T19:15:13.439Z,1.30
2019-05-29T19:17:42.408Z,1.17
2019-05-29T19:20:11.793Z,1.60
2019-05-29T19:22:40.698Z,1.67
2019-05-29T19:25:10.329Z,1.30
2019-05-29T19:27:42.170Z,1.47
2019-05-29T19:30:10.797Z,1.40
2019-05-29T19:32:39.953Z,1.40
2019-05-29T19:35:09.508Z,1.37
2019-05-29T19:37:38.639Z,1.20
2019-05-29T19:40:08.208Z,1.60
2019-05-29T19:42:37.878Z,1.20
2019-05-29T19:45:07.599Z,1.70
2019-05-29T19:47:36.586Z,1.63
2019-05-29T19:50:06.047Z,1.43
2019-05-29T19:52:35.333Z,1.60
2019-05-29T19:55:05.348Z,1.70
2019-05-29T19:57:52.481Z,1.70
2019-05-29T20:00:06.157Z,1.77
2019-05-29T20:02:36.427Z,1.60
2019-05-29T20:05:06.713Z,1.57
2019-05-29T20:07:35.677Z,1.83
2019-05-29T20:10:05.433Z,1.90
2019-05-29T20:12:35.644Z,1.80
2019-05-29T20:15:05.577Z,1.80
2019-05-29T20:17:34.569Z,2.03
2019-05-29T20:20:03.737Z,1.70
2019-05-29T20:22:32.817Z,1.60
2019-05-29T20:25:01.797Z,1.93
2019-05-29T20:27:32.016Z,2.20
2019-05-29T20:30:01.281Z,1.90
2019-05-29T20:32:30.539Z,1.80
2019-05-29T20:34:59.518Z,1.70
2019-05-29T20:37:29.910Z,1.63
2019-05-29T20:39:59.065Z,1.60
2019-05-29T20:42:28.285Z,1.80
2019-05-29T20:44:57.200Z,1.50
2019-05-29T20:47:26.346Z,1.70
2019-05-29T20:49:55.246Z,1.70
2019-05-29T20:52:24.318Z,1.80
2019-05-29T20:54:53.318Z,1.70
2019-05-29T20:57:22.318Z,1.80
2019-05-29T20:59:51.307Z,1.83
2019-05-29T21:02:20.350Z,1.87
2019-05-29T21:04:49.376Z,1.93
2019-05-29T21:07:18.647Z,1.80
2019-05-29T21:09:47.750Z,1.80
2019-05-29T21:12:16.718Z,1.63
2019-05-29T21:14:45.755Z,1.70
2019-05-29T21:17:14.855Z,1.80
2019-05-29T21:19:44.716Z,1.70
2019-05-29T21:22:13.844Z,1.80
2019-05-29T21:24:49.352Z,3.63
2019-05-29T21:27:13.684Z,2.50
2019-05-29T21:29:43.407Z,1.83
2019-05-29T21:32:12.627Z,2.27
2019-05-29T21:34:41.936Z,1.90
2019-05-29T21:37:11.204Z,1.93
2019-05-29T21:39:40.304Z,2.10
2019-05-29T21:42:09.423Z,2.27
2019-05-29T21:44:38.665Z,2.07
2019-05-29T21:47:07.823Z,1.77
2019-05-29T21:49:37.257Z,1.97
2019-05-29T21:52:06.407Z,2.00
2019-05-29T21:54:37.218Z,1.87
2019-05-29T21:57:06.480Z,2.20
2019-05-29T21:59:35.472Z,2.17
2019-05-29T22:02:05.505Z,2.20
2019-05-29T22:04:35.216Z,2.40
2019-05-29T22:07:04.452Z,1.93
2019-05-29T22:09:33.345Z,2.33
2019-05-29T22:12:02.384Z,1.97
2019-05-29T22:14:31.475Z,2.13
2019-05-29T22:17:01.276Z,2.20
2019-05-29T22:19:30.857Z,1.80
2019-05-29T22:21:59.838Z,1.90
2019-05-29T22:24:28.784Z,2.20
2019-05-29T22:26:57.758Z,1.63
2019-05-29T22:29:26.733Z,1.80
2019-05-29T22:31:55.909Z,2.00
2019-05-29T22:34:24.812Z,1.80
2019-05-29T22:36:53.933Z,1.90
2019-05-29T22:39:22.984Z,1.50
2019-05-29T22:41:51.953Z,1.90
2019-05-29T22:44:20.925Z,1.77
2019-05-29T22:46:49.901Z,1.70
2019-05-29T22:49:18.796Z,2.00
2019-05-29T22:51:47.752Z,1.80
2019-05-29T22:54:16.768Z,1.70
2019-05-29T22:56:45.741Z,1.73
2019-05-29T22:59:29.111Z,1.83
2019-05-29T23:01:45.414Z,1.80
2019-05-29T23:04:14.669Z,1.50
2019-05-29T23:06:43.621Z,1.60
2019-05-29T23:09:12.767Z,1.67
2019-05-29T23:11:41.741Z,1.53
2019-05-29T23:14:10.790Z,1.57
2019-05-29T23:16:40.127Z,1.60
2019-05-29T23:19:09.569Z,1.60
2019-05-29T23:21:38.657Z,1.53
2019-05-29T23:24:07.782Z,1.63
2019-05-29T23:26:36.789Z,1.73
2019-05-29T23:29:05.980Z,1.70
2019-05-29T23:31:35.082Z,1.60
2019-05-29T23:34:04.201Z,1.57
2019-05-29T23:36:33.246Z,1.83
2019-05-29T23:39:03.392Z,1.77
2019-05-29T23:41:32.582Z,1.83
2019-05-29T23:44:01.677Z,1.50
2019-05-29T23:46:30.774Z,1.60
2019-05-29T23:48:59.800Z,1.40
2019-05-29T23:51:28.773Z,1.60
2019-05-29T23:53:57.770Z,1.60
2019-05-29T23:56:27.026Z,1.57
2019-05-29T23:58:56.230Z,1.70
